Messwerte Matagami

Temperatur

Temperatur
°C
1594371600 5.00 5.00 21
1594375200 6.00 6.00 21
1594378800 7.00 7.00 22
1594382400 8.00 8.00 24
1594386000 9.00 9.00 26
1594389600 10.00 10.00 28
1594393200 11.00 11.00 28
1594396800 12.00 12.00 29
1594400400 13.00 13.00 29
1594404000 14.00 14.00 30
1594407600 15.00 15.00
1594411200 16.00 16.00 23
1594414800 17.00 17.00 23
1594418400 18.00 18.00 23
1594422000 19.00 19.00 20
1594425600 20.00 20.00 20
1594429200 21.00 21.00 20
1594432800 22.00 22.00 20
1594436400 23.00 23.00 20
1594440000 0.00 0.00 20
1594443600 1.00 1.00 19
1594447200 2.00 2.00 20
1594450800 3.00 3.00
1594454400 4.00 4.00 19

Aktuellste Messwerte

Wettercharakter
Wetter: Wolkenfelder, kaum Regen
Temperatur
19 °C
Feuchtigkeit
100 %
Wind
10 km/hWindrichtung: Südost
Luftdruck
1004 hPa
Messzeit: 11. Juli 2020, 4.00Datenquelle: METAR

Weitere Messstationen in der Nähe

Messstation Temperatur Entfernung
Rouyn Airport 20 °C 188 km
Val-d'Or 20 °C 189 km
Dawson Creek 15 °C 203 km
Chibougamau 20 °C 235 km
Kirkland Lake 20 °C 240 km
Moosonee 20 °C 261 km
Earlton 20 °C 273 km

Wind

Windrichtung Böen Mittelwind
° km/h km/h
1594371600 5.00 4.00 - 5.00 200° 10
1594375200 6.00 5.00 - 6.00 210° 5
1594378800 7.00 6.00 - 7.00 220° 5
1594382400 8.00 7.00 - 8.00 260° 10
1594386000 9.00 8.00 - 9.00 210° 5
1594389600 10.00 9.00 - 10.00 5
1594393200 11.00 10.00 - 11.00 190° 15
1594396800 12.00 11.00 - 12.00 170° 20
1594400400 13.00 12.00 - 13.00 220° 15
1594404000 14.00 13.00 - 14.00 180° 15
1594407600 15.00 14.00 - 15.00
1594411200 16.00 15.00 - 16.00 280° 30 15
1594414800 17.00 16.00 - 17.00 60° 10
1594418400 18.00 17.00 - 18.00 100° 10
1594422000 19.00 18.00 - 19.00 320° 45 30
1594425600 20.00 19.00 - 20.00 300° 30 5
1594429200 21.00 20.00 - 21.00 100° 10
1594432800 22.00 21.00 - 22.00 130° 10
1594436400 23.00 22.00 - 23.00 170° 30 15
1594440000 0.00 23.00 - 0.00 170° 5
1594443600 1.00 0.00 - 1.00 170° 10
1594447200 2.00 1.00 - 2.00 170° 10
1594450800 3.00 2.00 - 3.00
1594454400 4.00 3.00 - 4.00 140° 10

Ihre Wetterstation

Fehlt Ihre Wetterstation auf unserem Portal?

Schreiben Sie an network@meteonews.ch

Klima

Wann ist es am wärmsten? Wann regnet es am wenigsten? Unsere Klimadaten geben Auskunft.